METAR AND TAF INFORMATION
METAR FOR KFLG
KFLG 270639Z AUTO 28004KT 10SM SCT023 BKN042 OVC049 02/M01 A2991 RMK AO2 PK WND 24026/0611 RAE10SNB10E27 P0000 T00221006 $
KFLG 270615Z AUTO 24015G26KT 5SM -SN OVC025 02/M01 A2994 RMK AO2 PK WND 24026/0611 RAE10SNB10 P0000 T00221011 $
KFLG 270557Z AUTO 23017G28KT 9SM -RA BKN037 OVC055 04/M02 A2993 RMK AO2 PK WND 22028/0556 RAB39 SLP087 P0000 60001 T00391017 10072 20039 58004 $
KFLG 270457Z AUTO 22013G22KT 10SM OVC050 05/M01 A2994 RMK AO2 SLP090 T00501011 $
KFLG 270357Z AUTO 23012KT 10SM OVC050 05/M01 A2994 RMK AO2 PK WND 22030/0303 RAE20 SLP091 P0001 T00501011 $
KFLG 270520Z 2706/2806 24012G20KT P6SM VCSH BKN040 OVC050
TEMPO 2706/2709 5SM -SHRA BR SCT012 OVC020
FM270900 24012G22KT P6SM VCSH SCT018 OVC030
TEMPO 2709/2713 4SM -SHRASN BR BKN012
FM271300 24014G26KT P6SM -SHRASN SCT012 OVC020
TEMPO 2713/2717 4SM -SHSN BR BKN012
FM271800 24017G30KT P6SM SCT020 BKN040
FM280100 26007KT P6SM SCT040

 AIRPORT MAP

 RUNWAY INFORMATION
Runway 03 Runway length 6999 ft Runway width 150 ft
Runway elevation 7011 ft Runway displaced threshold 0 ft Runway heading 41
Runway 21 Runway length 6999 ft Runway width 150 ft
Runway elevation 6995 ft Runway displaced threshold 0 ft Runway heading 221

 AIRPORT FREQUENCIES
Type ATIS Name ATIS Frequency 125.8 MHZ
Type CNTR Name ALBUQUERQU Frequency 124.5 MHZ
Type CTAF Name CTAF Frequency 134.55 MHZ
Type GND Name GND Frequency 121.9 MHZ
Type RDO Name PRESCOTT R Frequency 122.3 MHZ
Type TWR Name TWR Frequency 134.55 MHZ
Type UNIC Name UNICOM Frequency 122.95 MHZ

 AIRPORT NEAR NAVIGATION AIDS
Type VOR-DME Name Flagstaff Frequency 113850 KHZ
Type NDB Name Pulliam Frequency 379 KHZ

-